createdAt,value
2018-05-16T00:00:11.550Z,1018.37
2018-05-16T00:01:12.364Z,1018.36
2018-05-16T00:02:12.937Z,1018.36
2018-05-16T00:03:13.512Z,1018.37
2018-05-16T00:04:14.086Z,1018.33
2018-05-16T00:05:14.659Z,1018.39
2018-05-16T00:06:15.234Z,1018.35
2018-05-16T00:07:15.808Z,1018.34
2018-05-16T00:08:16.383Z,1018.31
2018-05-16T00:09:17.005Z,1018.39
2018-05-16T00:10:17.579Z,1018.35
2018-05-16T00:11:18.204Z,1018.35
2018-05-16T00:12:18.776Z,1018.40
2018-05-16T00:13:19.352Z,1018.32
2018-05-16T00:14:19.924Z,1018.37
2018-05-16T00:15:20.495Z,1018.34
2018-05-16T00:16:21.070Z,1018.26
2018-05-16T00:17:21.654Z,1018.31
2018-05-16T00:18:22.216Z,1018.31
2018-05-16T00:19:22.791Z,1018.29
2018-05-16T00:20:23.365Z,1018.27
2018-05-16T00:21:23.936Z,1018.28
2018-05-16T00:22:24.561Z,1018.33
2018-05-16T00:23:25.135Z,1018.26
2018-05-16T00:24:25.801Z,1018.24
2018-05-16T00:25:26.374Z,1018.16
2018-05-16T00:26:26.949Z,1018.19
2018-05-16T00:27:27.523Z,1018.14
2018-05-16T00:28:28.096Z,1018.14
2018-05-16T00:29:28.722Z,1018.14
2018-05-16T00:30:29.292Z,1018.13
2018-05-16T00:31:29.869Z,1018.04
2018-05-16T00:32:30.592Z,1018.13
2018-05-16T00:33:31.166Z,1018.06
2018-05-16T00:34:31.741Z,1018.06
2018-05-16T00:35:32.365Z,1018.09
2018-05-16T00:36:32.939Z,1018.05
2018-05-16T00:37:33.512Z,1017.98
2018-05-16T00:38:34.086Z,1017.98
2018-05-16T00:39:34.659Z,1018.02
2018-05-16T00:40:35.234Z,1017.97
2018-05-16T00:41:35.807Z,1017.94
2018-05-16T00:42:36.428Z,1018.01
2018-05-16T00:43:37.004Z,1017.98
2018-05-16T00:44:37.627Z,1017.87
2018-05-16T00:45:38.204Z,1017.95
2018-05-16T00:46:38.780Z,1017.98
2018-05-16T00:47:39.356Z,1018.05
2018-05-16T00:48:39.970Z,1017.92
2018-05-16T00:50:24.888Z,1017.96
2018-05-16T00:51:25.461Z,1018.01
2018-05-16T00:52:26.036Z,1017.98
2018-05-16T00:53:26.664Z,1017.95
2018-05-16T00:54:27.235Z,1017.95
2018-05-16T00:55:27.809Z,1017.98
2018-05-16T00:56:28.428Z,1017.97
2018-05-16T00:57:29.042Z,1017.88
2018-05-16T00:58:29.615Z,1017.93
2018-05-16T00:59:30.190Z,1017.97
2018-05-16T01:00:30.763Z,1017.87
2018-05-16T01:01:31.336Z,1017.87
2018-05-16T01:02:31.909Z,1017.85
2018-05-16T01:03:32.533Z,1017.90
2018-05-16T01:04:33.154Z,1017.89
2018-05-16T01:05:33.733Z,1017.88
2018-05-16T01:06:34.301Z,1017.85
2018-05-16T01:07:34.876Z,1017.85
2018-05-16T01:08:35.450Z,1017.77
2018-05-16T01:09:36.022Z,1017.94
2018-05-16T01:10:36.595Z,1017.88
2018-05-16T01:11:37.168Z,1017.90
2018-05-16T01:12:37.790Z,1017.84
2018-05-16T01:13:38.363Z,1017.90
2018-05-16T01:14:38.935Z,1017.79
2018-05-16T01:15:39.517Z,1017.79
2018-05-16T01:18:43.828Z,1017.77
2018-05-16T01:19:44.403Z,1017.79
2018-05-16T01:20:45.017Z,1017.77
2018-05-16T01:21:45.590Z,1017.79
2018-05-16T01:22:46.219Z,1017.74
2018-05-16T01:23:46.838Z,1017.68
2018-05-16T01:24:47.411Z,1017.73
2018-05-16T01:25:47.985Z,1017.69
2018-05-16T01:26:48.558Z,1017.75
2018-05-16T01:27:49.131Z,1017.71
2018-05-16T01:29:19.501Z,1017.74
2018-05-16T01:30:20.081Z,1017.68
2018-05-16T01:31:20.663Z,1017.65
2018-05-16T01:32:21.243Z,1017.66
2018-05-16T01:33:21.823Z,1017.66
2018-05-16T01:34:22.454Z,1017.61
2018-05-16T01:35:23.034Z,1017.52
2018-05-16T01:36:23.617Z,1017.58
2018-05-16T01:37:24.196Z,1017.66
2018-05-16T01:38:24.826Z,1017.58
2018-05-16T01:39:25.407Z,1017.55
2018-05-16T01:42:29.181Z,1017.52
2018-05-16T01:43:29.777Z,1017.52
2018-05-16T01:44:30.347Z,1017.52
2018-05-16T01:45:30.919Z,1017.56
2018-05-16T01:46:31.492Z,1017.64
2018-05-16T01:47:32.065Z,1017.60
2018-05-16T01:48:32.637Z,1017.56
2018-05-16T01:49:33.208Z,1017.52
2018-05-16T01:50:33.780Z,1017.56
2018-05-16T01:51:34.353Z,1017.53
2018-05-16T01:52:34.975Z,1017.56
2018-05-16T01:53:35.596Z,1017.53
2018-05-16T01:54:36.319Z,1017.55
2018-05-16T01:55:36.931Z,1017.55
2018-05-16T01:56:37.504Z,1017.55
2018-05-16T01:57:38.078Z,1017.60
2018-05-16T01:58:38.649Z,1017.60
2018-05-16T01:59:39.222Z,1017.53
2018-05-16T02:00:39.796Z,1017.54
2018-05-16T02:01:40.417Z,1017.60
2018-05-16T02:02:40.991Z,1017.61
2018-05-16T02:03:41.564Z,1017.62
2018-05-16T02:04:42.138Z,1017.60
2018-05-16T02:05:42.711Z,1017.58
2018-05-16T02:06:43.333Z,1017.60
2018-05-16T02:07:43.906Z,1017.59
2018-05-16T02:08:44.479Z,1017.53
2018-05-16T02:09:45.101Z,1017.55
2018-05-16T02:10:45.673Z,1017.51
2018-05-16T02:11:46.295Z,1017.54
2018-05-16T02:12:46.868Z,1017.59
2018-05-16T02:13:47.441Z,1017.61
2018-05-16T02:14:48.015Z,1017.50
2018-05-16T02:15:48.588Z,1017.48
2018-05-16T02:16:49.159Z,1017.55
2018-05-16T02:17:49.734Z,1017.48
2018-05-16T02:19:34.655Z,1017.53
2018-05-16T02:20:35.282Z,1017.51
2018-05-16T02:21:35.850Z,1017.45
2018-05-16T02:22:36.423Z,1017.51
2018-05-16T02:23:36.997Z,1017.49
2018-05-16T02:24:37.572Z,1017.41
2018-05-16T02:25:38.195Z,1017.45
2018-05-16T02:26:38.767Z,1017.35
2018-05-16T02:27:39.339Z,1017.47
2018-05-16T02:28:39.963Z,1017.35
2018-05-16T02:29:40.538Z,1017.36
2018-05-16T02:30:41.113Z,1017.37
2018-05-16T02:31:41.686Z,1017.29
2018-05-16T02:32:42.267Z,1017.38
2018-05-16T02:33:42.876Z,1017.33
2018-05-16T02:34:43.448Z,1017.33
2018-05-16T02:35:44.020Z,1017.43
2018-05-16T02:36:44.595Z,1017.32
2018-05-16T02:37:45.167Z,1017.31
2018-05-16T02:38:45.739Z,1017.33
2018-05-16T02:39:46.362Z,1017.32
2018-05-16T02:40:46.934Z,1017.26
2018-05-16T02:41:47.558Z,1017.24
2018-05-16T02:42:48.131Z,1017.28
2018-05-16T02:43:48.704Z,1017.25
2018-05-16T02:44:49.277Z,1017.22
2018-05-16T02:45:49.898Z,1017.26
2018-05-16T02:46:50.474Z,1017.26
2018-05-16T02:47:51.047Z,1017.23
2018-05-16T02:48:51.619Z,1017.17
2018-05-16T02:49:52.191Z,1017.14
2018-05-16T02:50:52.765Z,1017.33
2018-05-16T02:51:53.339Z,1017.22
2018-05-16T02:52:53.912Z,1017.22
2018-05-16T02:53:54.484Z,1017.20
2018-05-16T02:54:55.063Z,1017.10
2018-05-16T02:55:55.726Z,1017.14
2018-05-16T02:56:56.307Z,1017.19
2018-05-16T02:57:56.917Z,1017.11
2018-05-16T02:58:57.539Z,1017.20
2018-05-16T02:59:58.110Z,1017.19
2018-05-16T03:00:58.834Z,1017.08
2018-05-16T03:01:59.407Z,1017.23
2018-05-16T03:02:59.980Z,1017.13
2018-05-16T03:04:00.554Z,1017.18
2018-05-16T03:05:01.128Z,1017.12
2018-05-16T03:06:01.702Z,1017.21
2018-05-16T03:07:02.272Z,1017.12
2018-05-16T03:08:02.843Z,1017.14
2018-05-16T03:09:47.774Z,1017.15
2018-05-16T03:10:48.383Z,1017.23
2018-05-16T03:11:48.957Z,1017.21
2018-05-16T03:12:49.532Z,1017.25
2018-05-16T03:13:50.103Z,1017.20
2018-05-16T03:14:50.677Z,1017.24
2018-05-16T03:15:51.302Z,1017.22
2018-05-16T03:16:51.924Z,1017.20
2018-05-16T03:17:52.496Z,1017.18
2018-05-16T03:18:53.071Z,1017.14
2018-05-16T03:19:53.694Z,1017.17
2018-05-16T03:20:54.269Z,1017.27
2018-05-16T03:21:54.842Z,1017.29
2018-05-16T03:22:55.414Z,1017.22
2018-05-16T03:23:55.989Z,1017.26
2018-05-16T03:24:56.567Z,1017.24
2018-05-16T03:25:57.135Z,1017.19
2018-05-16T03:26:57.708Z,1017.21
2018-05-16T03:27:58.281Z,1017.13
2018-05-16T03:28:58.854Z,1017.07
2018-05-16T03:29:59.426Z,1017.08
2018-05-16T03:31:00.049Z,1017.10
2018-05-16T03:32:00.623Z,1017.09
2018-05-16T03:33:01.197Z,1017.02
2018-05-16T03:34:01.769Z,1017.08
2018-05-16T03:35:02.543Z,1017.04
2018-05-16T03:36:03.116Z,1017.01
2018-05-16T03:37:03.688Z,1017.06
2018-05-16T03:38:04.262Z,1017.07
2018-05-16T03:39:04.886Z,1017.05
2018-05-16T03:40:05.457Z,1016.96
2018-05-16T03:41:06.031Z,1016.97
2018-05-16T03:42:06.609Z,1017.03
2018-05-16T03:43:07.178Z,1017.00
2018-05-16T03:44:07.750Z,1016.99
2018-05-16T03:45:08.333Z,1017.05
2018-05-16T03:46:08.896Z,1017.01
2018-05-16T03:47:09.470Z,1017.00
2018-05-16T03:48:10.043Z,1016.98
2018-05-16T03:49:10.617Z,1016.86
2018-05-16T03:50:11.191Z,1016.97
2018-05-16T03:51:11.813Z,1016.93
2018-05-16T03:52:12.386Z,1016.88
2018-05-16T03:53:13.008Z,1016.84
2018-05-16T03:54:13.635Z,1016.84
2018-05-16T03:55:14.204Z,1016.84
2018-05-16T03:56:14.777Z,1016.80
2018-05-16T03:57:15.354Z,1016.81
2018-05-16T03:58:15.927Z,1016.79
2018-05-16T04:00:00.844Z,1016.84
2018-05-16T04:01:01.421Z,1016.90
2018-05-16T04:02:01.993Z,1016.85
2018-05-16T04:03:02.566Z,1016.92
2018-05-16T04:04:03.144Z,1016.88
2018-05-16T04:05:03.710Z,1016.86
2018-05-16T04:06:04.324Z,1016.81
2018-05-16T04:07:04.899Z,1016.83
2018-05-16T04:08:05.473Z,1016.85
2018-05-16T04:09:06.043Z,1016.91
2018-05-16T04:10:06.668Z,1016.84
2018-05-16T04:11:07.240Z,1016.89
2018-05-16T04:12:07.864Z,1016.85
2018-05-16T04:13:08.438Z,1016.88
2018-05-16T04:14:09.010Z,1016.86
2018-05-16T04:15:09.583Z,1016.89
2018-05-16T04:16:10.394Z,1016.88
2018-05-16T04:17:10.930Z,1016.86
2018-05-16T04:18:11.505Z,1016.85
2018-05-16T04:19:12.077Z,1016.85
2018-05-16T04:20:12.650Z,1016.82
2018-05-16T04:21:13.224Z,1016.83
2018-05-16T04:22:13.798Z,1016.75
2018-05-16T04:23:14.370Z,1016.77
2018-05-16T04:24:14.944Z,1016.80
2018-05-16T04:25:15.516Z,1016.70
2018-05-16T04:26:16.291Z,1016.75
2018-05-16T04:27:16.865Z,1016.72
2018-05-16T04:28:17.439Z,1016.71
2018-05-16T04:29:18.011Z,1016.75
2018-05-16T04:30:18.585Z,1016.73
2018-05-16T04:31:19.212Z,1016.76
2018-05-16T04:32:19.784Z,1016.69
2018-05-16T04:33:20.358Z,1016.69
2018-05-16T04:34:20.930Z,1016.72
2018-05-16T04:35:21.553Z,1016.72
2018-05-16T04:36:22.126Z,1016.77
2018-05-16T04:37:22.699Z,1016.79
2018-05-16T04:38:23.272Z,1016.76
2018-05-16T04:39:23.845Z,1016.74
2018-05-16T04:40:24.478Z,1016.77
2018-05-16T04:41:25.060Z,1016.71
2018-05-16T04:42:25.643Z,1016.75
2018-05-16T04:43:26.225Z,1016.65
2018-05-16T04:44:26.809Z,1016.77
2018-05-16T04:45:27.389Z,1016.71
2018-05-16T04:46:28.007Z,1016.73
2018-05-16T04:47:28.589Z,1016.62
2018-05-16T04:48:29.169Z,1016.65
2018-05-16T04:51:15.884Z,1016.73
2018-05-16T04:52:16.516Z,1016.72
2018-05-16T04:53:17.096Z,1016.67
2018-05-16T04:54:17.726Z,1016.73
2018-05-16T04:55:18.309Z,1016.64
2018-05-16T04:56:18.931Z,1016.69
2018-05-16T04:57:19.510Z,1016.71
2018-05-16T04:58:20.090Z,1016.69
2018-05-16T04:59:20.669Z,1016.72
2018-05-16T05:00:21.251Z,1016.70
2018-05-16T05:01:21.829Z,1016.64
2018-05-16T05:02:22.410Z,1016.75
2018-05-16T05:03:22.988Z,1016.70
2018-05-16T05:04:23.567Z,1016.71
2018-05-16T05:05:24.196Z,1016.69
2018-05-16T05:06:24.776Z,1016.69
2018-05-16T05:07:25.356Z,1016.68
2018-05-16T05:08:25.935Z,1016.66
2018-05-16T05:10:28.176Z,1016.74
2018-05-16T05:11:28.745Z,1016.66
2018-05-16T05:12:29.318Z,1016.66
2018-05-16T05:13:29.890Z,1016.69
2018-05-16T05:14:30.461Z,1016.65
2018-05-16T05:15:31.032Z,1016.63
2018-05-16T05:16:31.603Z,1016.64
2018-05-16T05:17:32.176Z,1016.60
2018-05-16T05:18:32.892Z,1016.70
2018-05-16T05:19:33.318Z,1016.65
2018-05-16T05:20:33.891Z,1016.74
2018-05-16T05:21:34.514Z,1016.76
2018-05-16T05:22:35.086Z,1016.74
2018-05-16T05:23:35.659Z,1016.73
2018-05-16T05:24:36.229Z,1016.73
2018-05-16T05:25:36.804Z,1016.79
2018-05-16T05:26:37.377Z,1016.73
2018-05-16T05:27:37.998Z,1016.83
2018-05-16T05:28:38.574Z,1016.81
2018-05-16T05:29:39.142Z,1016.81
2018-05-16T05:30:39.816Z,1016.70
2018-05-16T05:31:40.437Z,1016.73
2018-05-16T05:32:41.009Z,1016.79
2018-05-16T05:33:41.687Z,1016.85
2018-05-16T05:34:42.257Z,1016.83
2018-05-16T05:35:42.825Z,1016.84
2018-05-16T05:36:43.403Z,1016.85
2018-05-16T05:37:43.972Z,1016.81
2018-05-16T05:38:44.543Z,1016.88
2018-05-16T05:40:29.466Z,1016.84
2018-05-16T05:41:30.037Z,1016.79
2018-05-16T05:42:30.611Z,1016.85
2018-05-16T05:43:31.186Z,1016.86
2018-05-16T05:44:31.759Z,1016.87
2018-05-16T05:45:32.331Z,1016.84
2018-05-16T05:46:32.903Z,1016.85
2018-05-16T05:47:33.477Z,1016.87
2018-05-16T05:48:34.050Z,1016.86
2018-05-16T05:49:34.621Z,1016.89
2018-05-16T05:50:35.245Z,1016.89
2018-05-16T05:51:35.870Z,1016.84
2018-05-16T05:52:36.484Z,1016.89
2018-05-16T05:53:37.058Z,1016.85
2018-05-16T05:54:37.680Z,1016.80
2018-05-16T05:55:38.254Z,1016.91
2018-05-16T05:56:38.826Z,1016.89
2018-05-16T05:57:39.399Z,1016.83
2018-05-16T05:58:39.972Z,1016.78
2018-05-16T05:59:40.545Z,1016.85
2018-05-16T06:00:41.117Z,1016.88
2018-05-16T06:01:41.689Z,1016.83
2018-05-16T06:02:42.262Z,1016.78
2018-05-16T06:03:42.838Z,1016.85
2018-05-16T06:04:43.458Z,1016.97
2018-05-16T06:05:44.030Z,1016.86
2018-05-16T06:06:44.602Z,1016.92
2018-05-16T06:07:45.176Z,1016.95
2018-05-16T06:08:45.751Z,1016.90
2018-05-16T06:09:46.324Z,1016.96
2018-05-16T06:10:46.945Z,1016.90
2018-05-16T06:11:47.569Z,1016.91
2018-05-16T06:12:48.282Z,1016.90
2018-05-16T06:13:48.757Z,1017.00
2018-05-16T06:14:49.384Z,1016.90
2018-05-16T06:15:49.955Z,1016.84
2018-05-16T06:16:50.527Z,1016.87
2018-05-16T06:17:51.100Z,1016.92
2018-05-16T06:18:51.674Z,1016.97
2018-05-16T06:19:52.272Z,1016.88
2018-05-16T06:20:52.823Z,1016.89
2018-05-16T06:21:53.395Z,1016.95
2018-05-16T06:22:53.968Z,1016.95
2018-05-16T06:23:54.542Z,1016.98
2018-05-16T06:24:55.115Z,1017.04
2018-05-16T06:25:55.687Z,1017.03
2018-05-16T06:26:56.263Z,1017.07
2018-05-16T06:27:56.835Z,1016.99
2018-05-16T06:28:57.457Z,1017.02
2018-05-16T06:30:42.379Z,1016.98
2018-05-16T06:31:42.952Z,1017.00
2018-05-16T06:32:43.580Z,1017.07
2018-05-16T06:33:44.200Z,1017.07
2018-05-16T06:34:44.773Z,1016.97
2018-05-16T06:35:45.346Z,1017.00
2018-05-16T06:36:45.925Z,1017.03
2018-05-16T06:37:46.496Z,1016.94
2018-05-16T06:38:47.119Z,1016.93
2018-05-16T06:39:47.690Z,1017.00
2018-05-16T06:40:48.262Z,1017.01
2018-05-16T06:41:48.837Z,1016.97
2018-05-16T06:42:49.412Z,1016.93
2018-05-16T06:43:49.986Z,1016.97
2018-05-16T06:44:50.609Z,1016.96
2018-05-16T06:45:51.338Z,1016.97
2018-05-16T06:46:51.796Z,1016.93
2018-05-16T06:47:52.370Z,1016.85
2018-05-16T06:48:52.993Z,1016.89
2018-05-16T06:49:53.568Z,1016.93
2018-05-16T06:50:54.193Z,1016.93
2018-05-16T06:51:54.773Z,1016.82
2018-05-16T06:52:55.341Z,1016.92
2018-05-16T06:53:55.916Z,1016.91
2018-05-16T06:54:56.490Z,1016.93
2018-05-16T06:55:57.065Z,1016.96
2018-05-16T06:56:57.639Z,1016.91
2018-05-16T06:57:58.213Z,1016.94
2018-05-16T06:58:58.831Z,1016.91
2018-05-16T06:59:59.405Z,1016.89
2018-05-16T07:01:00.031Z,1016.91
2018-05-16T07:02:01.820Z,1016.91
2018-05-16T07:03:02.395Z,1016.90
2018-05-16T07:04:03.073Z,1016.89
2018-05-16T07:05:03.545Z,1016.93
2018-05-16T07:06:04.166Z,1016.91
2018-05-16T07:07:04.742Z,1016.86
2018-05-16T07:08:05.318Z,1016.89
2018-05-16T07:09:05.944Z,1016.84
2018-05-16T07:10:06.515Z,1016.86
2018-05-16T07:11:07.092Z,1016.81
2018-05-16T07:12:07.664Z,1016.77
2018-05-16T07:13:08.235Z,1016.82
2018-05-16T07:14:08.812Z,1016.84
2018-05-16T07:15:09.390Z,1016.82
2018-05-16T07:16:09.959Z,1016.84
2018-05-16T07:17:10.534Z,1016.76
2018-05-16T07:18:11.107Z,1016.81
2018-05-16T07:19:11.680Z,1016.84
2018-05-16T07:20:56.603Z,1016.92
2018-05-16T07:21:57.228Z,1016.84
2018-05-16T07:22:57.802Z,1016.87
2018-05-16T07:23:58.378Z,1016.83
2018-05-16T07:24:58.956Z,1016.89
2018-05-16T07:25:59.733Z,1016.87
2018-05-16T07:27:00.360Z,1016.86
2018-05-16T07:28:00.938Z,1016.91
2018-05-16T07:29:01.523Z,1016.90
2018-05-16T07:30:02.098Z,1016.82
2018-05-16T07:31:02.676Z,1016.84
2018-05-16T07:32:03.263Z,1016.86
2018-05-16T07:33:03.836Z,1016.85
2018-05-16T07:34:04.429Z,1016.85
2018-05-16T07:35:04.988Z,1016.86
2018-05-16T07:36:05.567Z,1016.85
2018-05-16T07:37:06.186Z,1016.90
2018-05-16T07:38:06.764Z,1016.87
2018-05-16T07:39:07.343Z,1017.01
2018-05-16T07:40:07.918Z,1016.83
2018-05-16T07:41:08.556Z,1016.93
2018-05-16T07:42:09.076Z,1016.88
2018-05-16T07:43:09.653Z,1016.93
2018-05-16T07:44:10.286Z,1016.90
2018-05-16T07:45:10.857Z,1016.89
2018-05-16T07:46:11.489Z,1016.86
2018-05-16T07:47:12.139Z,1016.94
2018-05-16T07:48:12.693Z,1016.93
2018-05-16T07:49:13.273Z,1017.00
2018-05-16T07:50:13.851Z,1016.87
2018-05-16T07:51:14.498Z,1016.96
2018-05-16T07:52:15.110Z,1016.89
2018-05-16T07:53:15.690Z,1016.93
2018-05-16T07:54:16.309Z,1016.87
2018-05-16T07:55:16.888Z,1016.82
2018-05-16T07:56:17.465Z,1016.82
2018-05-16T07:57:18.095Z,1016.83
2018-05-16T07:58:18.674Z,1016.87
2018-05-16T07:59:19.294Z,1016.89
2018-05-16T08:00:19.871Z,1016.88
2018-05-16T08:01:20.459Z,1016.88
2018-05-16T08:02:21.069Z,1016.91
2018-05-16T08:03:21.760Z,1016.89
2018-05-16T08:04:22.280Z,1016.89
2018-05-16T08:05:23.055Z,1016.93
2018-05-16T08:06:23.633Z,1016.94
2018-05-16T08:07:24.211Z,1016.91
2018-05-16T08:08:24.788Z,1016.91
2018-05-16T08:09:25.365Z,1016.89
2018-05-16T08:11:10.344Z,1016.86
2018-05-16T08:12:10.940Z,1016.89
2018-05-16T08:13:11.552Z,1016.89
2018-05-16T08:14:12.146Z,1016.96
2018-05-16T08:15:12.750Z,1016.83
2018-05-16T08:16:13.328Z,1016.87
2018-05-16T08:17:13.907Z,1016.91
2018-05-16T08:18:14.486Z,1016.85
2018-05-16T08:19:15.065Z,1016.95
2018-05-16T08:20:15.646Z,1016.82
2018-05-16T08:21:16.276Z,1016.90
2018-05-16T08:22:16.850Z,1016.86
2018-05-16T08:23:17.427Z,1016.89
2018-05-16T08:24:18.006Z,1016.77
2018-05-16T08:25:18.585Z,1016.79
2018-05-16T08:26:19.230Z,1016.88
2018-05-16T08:27:19.884Z,1016.91
2018-05-16T08:28:20.462Z,1016.84
2018-05-16T08:29:21.039Z,1016.88
2018-05-16T08:30:21.619Z,1016.80
2018-05-16T08:31:22.198Z,1016.87
2018-05-16T08:32:22.779Z,1016.87
2018-05-16T08:33:23.356Z,1016.96
2018-05-16T08:34:23.936Z,1016.91
2018-05-16T08:35:24.513Z,1016.90
2018-05-16T08:36:25.093Z,1016.87
2018-05-16T08:37:25.674Z,1016.92
2018-05-16T08:38:26.252Z,1016.95
2018-05-16T08:39:26.831Z,1016.94
2018-05-16T08:40:27.415Z,1016.91
2018-05-16T08:41:28.040Z,1016.94
2018-05-16T08:42:28.619Z,1016.94
2018-05-16T08:43:29.202Z,1016.87
2018-05-16T08:44:29.820Z,1016.95
2018-05-16T08:45:30.449Z,1016.91
2018-05-16T08:46:31.029Z,1016.91
2018-05-16T08:47:31.609Z,1016.98
2018-05-16T08:48:32.187Z,1016.95
2018-05-16T08:49:32.806Z,1016.93
2018-05-16T08:50:33.436Z,1016.89
2018-05-16T08:51:34.012Z,1016.88
2018-05-16T08:52:34.593Z,1016.89
2018-05-16T08:53:35.171Z,1016.98
2018-05-16T08:54:35.752Z,1016.95
2018-05-16T08:55:36.334Z,1016.96
2018-05-16T08:56:36.909Z,1016.93
2018-05-16T08:57:37.488Z,1016.90
2018-05-16T08:58:38.067Z,1016.89
2018-05-16T08:59:38.646Z,1016.96
2018-05-16T09:01:23.577Z,1016.90
2018-05-16T09:02:24.157Z,1016.91
2018-05-16T09:03:24.737Z,1016.99
2018-05-16T09:04:25.367Z,1016.95
2018-05-16T09:05:25.947Z,1017.00
2018-05-16T09:06:26.527Z,1016.99
2018-05-16T09:07:27.107Z,1016.94
2018-05-16T09:08:27.686Z,1016.99
2018-05-16T09:09:28.316Z,1016.92
2018-05-16T09:10:28.895Z,1016.96
2018-05-16T09:11:29.473Z,1017.00
2018-05-16T09:12:30.058Z,1016.97
2018-05-16T09:13:30.635Z,1016.99
2018-05-16T09:14:31.264Z,1016.90
2018-05-16T09:15:31.842Z,1016.90
2018-05-16T09:16:32.421Z,1016.96
2018-05-16T09:17:32.999Z,1016.94
2018-05-16T09:18:33.578Z,1016.96
2018-05-16T09:19:34.157Z,1017.00
2018-05-16T09:20:34.787Z,1016.88
2018-05-16T09:21:35.364Z,1016.95
2018-05-16T09:22:35.944Z,1016.88
2018-05-16T09:23:36.521Z,1016.87
2018-05-16T09:24:37.102Z,1016.85
2018-05-16T09:25:37.679Z,1016.88
2018-05-16T09:26:38.258Z,1016.91
2018-05-16T09:27:38.841Z,1016.95
2018-05-16T09:28:39.422Z,1016.87
2018-05-16T09:29:39.998Z,1016.91
2018-05-16T09:30:40.579Z,1017.02
2018-05-16T09:31:41.157Z,1016.97
2018-05-16T09:32:41.789Z,1016.95
2018-05-16T09:33:42.417Z,1016.95
2018-05-16T09:34:42.999Z,1016.94
2018-05-16T09:35:43.575Z,1016.90
2018-05-16T09:36:44.155Z,1016.90
2018-05-16T09:37:44.734Z,1016.87
2018-05-16T09:38:45.313Z,1016.89
2018-05-16T09:39:45.895Z,1016.91
2018-05-16T09:40:46.470Z,1016.87
2018-05-16T09:41:47.048Z,1016.89
2018-05-16T09:42:47.629Z,1016.91
2018-05-16T09:43:48.208Z,1016.90
2018-05-16T09:44:48.789Z,1016.86
2018-05-16T09:45:49.525Z,1016.91
2018-05-16T09:46:49.998Z,1016.90
2018-05-16T09:47:50.577Z,1016.84
2018-05-16T09:48:51.158Z,1016.85
2018-05-16T09:49:51.735Z,1016.89
2018-05-16T09:51:36.760Z,1016.92
2018-05-16T09:52:37.298Z,1016.90
2018-05-16T09:53:37.878Z,1016.88
2018-05-16T09:54:38.457Z,1016.99
2018-05-16T09:55:39.084Z,1016.88
2018-05-16T09:56:39.664Z,1016.85
2018-05-16T09:57:40.243Z,1016.90
2018-05-16T09:58:40.821Z,1016.93
2018-05-16T09:59:41.403Z,1016.92
2018-05-16T10:00:41.979Z,1016.87
2018-05-16T10:01:42.558Z,1016.84
2018-05-16T10:02:43.203Z,1016.81
2018-05-16T10:03:43.716Z,1016.90
2018-05-16T10:04:44.295Z,1016.87
2018-05-16T10:05:44.874Z,1016.88
2018-05-16T10:06:45.512Z,1016.85
2018-05-16T10:07:46.083Z,1016.86
2018-05-16T10:08:46.661Z,1016.82
2018-05-16T10:09:47.281Z,1016.85
2018-05-16T10:10:47.824Z,1016.88
2018-05-16T10:11:48.400Z,1016.92
2018-05-16T10:12:48.979Z,1016.86
2018-05-16T10:13:49.610Z,1016.90
2018-05-16T10:14:50.229Z,1016.89
2018-05-16T10:15:50.813Z,1016.89
2018-05-16T10:16:51.487Z,1016.92
2018-05-16T10:17:52.061Z,1017.00
2018-05-16T10:18:52.641Z,1016.93
2018-05-16T10:19:53.221Z,1016.98
2018-05-16T10:20:53.799Z,1016.91
2018-05-16T10:21:54.380Z,1016.94
2018-05-16T10:22:54.960Z,1016.92
2018-05-16T10:23:55.541Z,1016.88
2018-05-16T10:24:56.123Z,1016.84
2018-05-16T10:25:56.753Z,1016.89
2018-05-16T10:26:57.332Z,1016.91
2018-05-16T10:27:57.913Z,1016.93
2018-05-16T10:28:58.492Z,1016.85
2018-05-16T10:29:59.073Z,1016.83
2018-05-16T10:30:59.651Z,1016.92
2018-05-16T10:32:00.233Z,1016.87
2018-05-16T10:33:00.864Z,1016.81
2018-05-16T10:34:01.442Z,1016.87
2018-05-16T10:35:02.023Z,1016.89
2018-05-16T10:36:02.605Z,1016.88
2018-05-16T10:37:03.185Z,1016.87
2018-05-16T10:38:03.819Z,1016.90
2018-05-16T10:39:04.395Z,1016.84
2018-05-16T10:40:04.975Z,1016.86
2018-05-16T10:41:49.906Z,1016.80
2018-05-16T10:42:50.488Z,1016.86
2018-05-16T10:43:51.071Z,1016.89
2018-05-16T10:44:51.665Z,1016.92
2018-05-16T10:45:52.278Z,1016.83
2018-05-16T10:46:52.862Z,1016.72
2018-05-16T10:47:53.536Z,1016.82
2018-05-16T10:48:54.118Z,1016.80
2018-05-16T10:49:54.749Z,1016.76
2018-05-16T10:50:55.333Z,1016.80
2018-05-16T10:52:57.537Z,1016.78
2018-05-16T10:53:58.125Z,1016.75
2018-05-16T10:54:58.764Z,1016.76
2018-05-16T10:55:59.621Z,1016.81
2018-05-16T10:56:59.943Z,1016.75
2018-05-16T10:58:00.527Z,1016.83
2018-05-16T10:59:01.117Z,1016.82
2018-05-16T11:00:01.703Z,1016.83
2018-05-16T11:01:02.292Z,1016.81
2018-05-16T11:02:02.881Z,1016.82
2018-05-16T11:03:03.470Z,1016.85
2018-05-16T11:04:04.057Z,1016.77
2018-05-16T11:05:04.647Z,1016.79
2018-05-16T11:06:05.234Z,1016.76
2018-05-16T11:07:05.823Z,1016.76
2018-05-16T11:08:06.461Z,1016.80
2018-05-16T11:09:07.054Z,1016.77
2018-05-16T11:10:07.694Z,1016.88
2018-05-16T11:11:08.334Z,1016.84
2018-05-16T11:12:08.923Z,1016.86
2018-05-16T11:13:09.513Z,1016.93
2018-05-16T11:14:10.104Z,1016.86
2018-05-16T11:15:10.692Z,1016.79
2018-05-16T11:16:11.282Z,1016.81
2018-05-16T11:17:11.872Z,1016.72
2018-05-16T11:18:12.463Z,1016.75
2018-05-16T11:19:13.054Z,1016.79
2018-05-16T11:20:13.645Z,1016.84
2018-05-16T11:22:15.803Z,1016.81
2018-05-16T11:23:16.384Z,1016.76
2018-05-16T11:24:16.966Z,1016.77
2018-05-16T11:25:17.556Z,1016.81
2018-05-16T11:26:18.151Z,1016.72
2018-05-16T11:27:18.737Z,1016.71
2018-05-16T11:28:19.331Z,1016.71
2018-05-16T11:32:00.205Z,1016.74
2018-05-16T11:35:39.669Z,1016.61
2018-05-16T11:36:40.262Z,1016.70
2018-05-16T11:40:45.842Z,1016.72
2018-05-16T11:41:46.428Z,1016.66
2018-05-16T11:42:47.015Z,1016.63
2018-05-16T11:43:47.602Z,1016.71
2018-05-16T11:45:05.960Z,1016.63
2018-05-16T11:46:06.551Z,1016.58
2018-05-16T11:47:07.134Z,1016.66
2018-05-16T11:48:07.728Z,1016.60
2018-05-16T11:49:08.326Z,1016.60
2018-05-16T11:50:08.920Z,1016.65
2018-05-16T11:52:11.248Z,1016.61
2018-05-16T11:53:11.845Z,1016.60
2018-05-16T11:54:12.439Z,1016.62
2018-05-16T11:55:13.085Z,1016.62
2018-05-16T11:56:13.684Z,1016.62
2018-05-16T11:57:14.325Z,1016.62
2018-05-16T11:58:14.921Z,1016.63
2018-05-16T11:59:15.523Z,1016.67
2018-05-16T12:00:16.107Z,1016.65
2018-05-16T12:01:16.703Z,1016.68
2018-05-16T12:02:17.298Z,1016.67
2018-05-16T12:03:17.891Z,1016.64
2018-05-16T12:04:18.488Z,1016.63
2018-05-16T12:05:19.082Z,1016.59
2018-05-16T12:06:19.679Z,1016.64
2018-05-16T12:07:20.313Z,1016.64
2018-05-16T12:08:20.910Z,1016.62
2018-05-16T12:09:21.503Z,1016.52
2018-05-16T12:10:22.151Z,1016.65
2018-05-16T12:11:22.792Z,1016.58
2018-05-16T12:12:23.390Z,1016.62
2018-05-16T12:13:23.985Z,1016.58
2018-05-16T12:14:24.581Z,1016.56
2018-05-16T12:15:25.177Z,1016.58
2018-05-16T12:16:25.822Z,1016.55
2018-05-16T12:17:26.417Z,1016.61
2018-05-16T12:18:27.013Z,1016.56
2018-05-16T12:19:27.610Z,1016.44
2018-05-16T12:20:28.206Z,1016.47
2018-05-16T12:21:28.850Z,1016.52
2018-05-16T12:22:29.447Z,1016.50
2018-05-16T12:23:30.044Z,1016.42
2018-05-16T12:24:30.637Z,1016.44
2018-05-16T12:25:31.232Z,1016.40
2018-05-16T12:26:31.878Z,1016.41
2018-05-16T12:27:32.475Z,1016.44
2018-05-16T12:28:33.071Z,1016.42
2018-05-16T12:29:33.718Z,1016.37
2018-05-16T12:30:34.314Z,1016.35
2018-05-16T12:31:34.912Z,1016.42
2018-05-16T12:32:35.506Z,1016.37
2018-05-16T12:33:36.103Z,1016.39
2018-05-16T12:35:21.217Z,1016.28
2018-05-16T12:36:21.815Z,1016.30
2018-05-16T12:37:22.460Z,1016.29
2018-05-16T12:38:23.056Z,1016.29
2018-05-16T12:39:23.651Z,1016.25
2018-05-16T12:40:24.250Z,1016.26